Aurillac Airport

LFLW · Département du Cantal, Auvergne-Rhône-Alpes, France

METAR anciennes LFLW · Aéroport d'Aurillac

Tu vois ci-dessous les METAR des derniers jours. Sélectionne une année pour parcourir les METAR plus anciens, à partir de l'année 2007.

29 novembre 2022

Temps Code Temps Temp. Vue Base cloud Vent METAR/SPECI
21:30
L
1 °C 450 m 300 ft 240° 240° 3 kt METAR LFLW 292030Z AUTO 24003KT 210V280 0550 0450 R15/0750D FG BKN003 01/01 Q1018
21:00
L
1 °C 350 m - Var Var 2 kt METAR LFLW 292000Z AUTO VRB02KT 0400 0350 R15/0700U FG VV/// 01/01 Q1018
20:30
L
1 °C 450 m - Var Var 1 kt METAR LFLW 291930Z AUTO VRB01KT 0450 R15/0650U FG VV/// 01/01 Q1018
20:00
L
3 °C 450 m - 290° 290° 2 kt METAR LFLW 291900Z AUTO 29002KT 0500 0450 R15/0450D FG VV/// 03/03 Q1018
19:30
M
3 °C 5 km - 280° 280° 3 kt METAR LFLW 291830Z AUTO 28003KT 5000 BR NSC 03/03 Q1018
19:00
V
3 °C 10 km+ - Var Var 3 kt METAR LFLW 291800Z AUTO VRB03KT 9999 NSC 03/03 Q1018
18:30
V
4 °C 10 km+ - 300° 300° 2 kt METAR LFLW 291730Z AUTO 30002KT 9999 FEW028 04/03 Q1018
18:00
M
4 °C 10 km+ 2.900 ft 300° 300° 3 kt METAR LFLW 291700Z AUTO 30003KT 260V320 9999 SCT023 BKN029 BKN038 04/03 Q1018 TEMPO BKN012 BECMG 3000 BR
17:30
M
4 °C 10 km+ 2.800 ft Var Var 3 kt METAR LFLW 291630Z AUTO VRB03KT 9999 FEW022 BKN028 BKN036 04/03 Q1018 TEMPO BKN012 BECMG 3000 BR
17:00
M
5 °C 10 km+ 2.600 ft Var Var 3 kt METAR LFLW 291600Z AUTO VRB03KT 9999 FEW016/// BKN026/// BKN036/// ///TCU 05/04 Q1018 TEMPO SHRA BKN012
16:30
V
5 °C 10 km+ - 290° 290° 5 kt METAR LFLW 291530Z AUTO 29005KT 250V330 9999 FEW024/// ///TCU 05/04 Q1018 TEMPO SHRA BKN012
16:00
M
5 °C 10 km+ 2.000 ft 310° 310° 6 kt METAR LFLW 291500Z AUTO 31006KT 280V350 9999 SCT013/// OVC020/// ///TCU 05/03 Q1018 TEMPO SHRA BKN012
15:30
M
6 °C 10 km+ 1.700 ft 300° 300° 6 kt METAR LFLW 291430Z AUTO 30006KT 260V330 9999 -RA BKN017/// BKN024/// BKN029/// ///CB 06/04 Q1018 TEMPO SHRA BKN012
15:00
V
6 °C 10 km+ - 310° 310° 4 kt METAR LFLW 291400Z AUTO 31004KT 270V350 9999 FEW027/// SCT037/// ///TCU 06/03 Q1017 TEMPO SHRA BKN012
14:30
M
7 °C 10 km+ 1.800 ft 320° 320° 6 kt METAR LFLW 291330Z AUTO 32006KT 270V360 9999 BKN018/// BKN023/// OVC029/// ///TCU 07/03 Q1017 TEMPO SHRA BKN012
14:00
M
7 °C 10 km+ 2.700 ft 310° 310° 7 kt METAR LFLW 291300Z AUTO 31007KT 270V350 9999 FEW018 BKN027 BKN033 07/03 Q1018 TEMPO SHRA BKN012
13:30
M
7 °C 10 km+ 2.900 ft 340° 340° 9 kt METAR LFLW 291230Z AUTO 34009KT 290V020 9999 FEW014 SCT021 BKN029 07/02 Q1018 TEMPO SHRA BKN012
13:00
M
6 °C 10 km+ 1.600 ft 320° 320° 8 kt METAR LFLW 291200Z AUTO 32008KT 290V360 9999 BKN016 BKN023 OVC031 06/03 Q1018 TEMPO SHRA BKN012
12:30
M
6 °C 10 km+ 1.400 ft 310° 310° 8 kt METAR LFLW 291130Z AUTO 31008KT 280V350 9999 BKN014 BKN019 06/03 Q1018 TEMPO SHRA
12:00
M
6 °C 10 km+ 1.300 ft 310° 310° 7 kt METAR LFLW 291100Z AUTO 31007KT 260V350 9999 BKN013 OVC019 06/03 Q1018 TEMPO SHRA
11:30
M
5 °C 10 km+ 1.500 ft 320° 320° 6 kt METAR LFLW 291030Z AUTO 32006KT 280V360 9999 FEW008 OVC015 05/03 Q1018 TEMPO SHRA BKN012
11:00
M
5 °C 10 km+ 1.200 ft 310° 310° 6 kt METAR LFLW 291000Z AUTO 31006KT 280V360 9999 BKN012 OVC017 05/03 Q1018 TEMPO SHRA SCT010 BKN016
10:30
M
5 °C 10 km+ 1.700 ft 300° 300° 5 kt METAR LFLW 290930Z AUTO 30005KT 250V350 9999 SCT010 OVC017 05/04 Q1018 TEMPO SHRA BKN012
10:00
M
4 °C 10 km+ 1.600 ft 320° 320° 4 kt METAR LFLW 290900Z AUTO 32004KT 270V360 9999 OVC016 04/03 Q1018 NOSIG
09:30
M
4 °C 10 km+ 1.100 ft 330° 330° 4 kt METAR LFLW 290830Z AUTO 33004KT 280V010 9999 OVC011 04/03 Q1018 BECMG SCT010 BKN016
09:00
I
4 °C 10 km+ 700 ft Var Var 2 kt METAR LFLW 290800Z AUTO VRB02KT 9999 BKN007 OVC012 04/03 Q1018 TEMPO 2000 BR BKN002 BKN025
08:30
I
3 °C 10 km+ 600 ft Var Var 3 kt METAR LFLW 290730Z AUTO VRB03KT 9999 BKN006 OVC010 03/03 Q1018 TEMPO 2000 BR BKN002 BKN025
08:00
I
3 °C 10 km+ 500 ft 340° 340° 4 kt METAR LFLW 290700Z AUTO 34004KT 300V010 9999 OVC005 03/03 Q1018 TEMPO 2000 BR VV///
07:30
I
3 °C 10 km+ 600 ft 300° 300° 4 kt METAR LFLW 290630Z AUTO 30004KT 260V330 9999 OVC006 03/03 Q1017 TEMPO 2000 BR VV///
07:00
I
3 °C 10 km+ 700 ft 320° 320° 4 kt METAR LFLW 290600Z AUTO 32004KT 280V340 9999 OVC007 03/03 Q1017 TEMPO 0500 FG VV///
06:30
I
4 °C 10 km+ 600 ft 300° 300° 7 kt METAR LFLW 290530Z AUTO 30007KT 280V340 9999 OVC006 04/03 Q1017 TEMPO 0500 FG VV///
06:00
I
4 °C 10 km+ 600 ft 310° 310° 6 kt METAR LFLW 290500Z AUTO 31006KT 9999 BKN006 OVC011 04/03 Q1017
05:30
I
4 °C 10 km+ 700 ft 290° 290° 5 kt METAR LFLW 290430Z AUTO 29005KT 260V330 9999 OVC007 04/03 Q1017
05:00
L
4 °C 10 km+ 400 ft 300° 300° 4 kt METAR LFLW 290400Z AUTO 30004KT 9999 OVC004 04/04 Q1017
04:30
I
4 °C 10 km+ 600 ft 310° 310° 4 kt METAR LFLW 290330Z AUTO 31004KT 280V350 9999 BKN006 OVC033 04/03 Q1017
04:00
I
4 °C 10 km+ 900 ft 290° 290° 4 kt METAR LFLW 290300Z AUTO 29004KT 260V330 9999 BKN009 OVC032 04/03 Q1017
03:30
I
4 °C 10 km+ 900 ft 300° 300° 7 kt METAR LFLW 290230Z AUTO 30007KT 9999 BKN009 BKN014 OVC038 04/03 Q1017
03:00
I
4 °C 10 km+ 600 ft 310° 310° 5 kt METAR LFLW 290200Z AUTO 31005KT 270V350 9999 BKN006 OVC010 04/04 Q1017
02:30
L
4 °C 10 km+ 400 ft 290° 290° 5 kt METAR LFLW 290130Z AUTO 29005KT 260V320 9999 BKN004 OVC008 04/04 Q1017
02:00
M
4 °C 10 km+ 1.000 ft 290° 290° 5 kt METAR LFLW 290100Z AUTO 29005KT 260V320 9999 FEW004 BKN010 BKN014 04/04 Q1017
01:30
I
4 °C 10 km+ 700 ft 290° 290° 5 kt METAR LFLW 290030Z AUTO 29005KT 250V320 9999 BKN007 OVC011 04/04 Q1017
01:00
L
4 °C 10 km+ 300 ft Var Var 3 kt METAR LFLW 290000Z AUTO VRB03KT 9999 OVC003 04/04 Q1017
00:30
I
4 °C 10 km+ 600 ft 300° 300° 4 kt METAR LFLW 282330Z AUTO 30004KT 260V330 9999 BKN006 OVC011 04/04 Q1017
00:00
I
4 °C 10 km+ 700 ft 290° 290° 4 kt METAR LFLW 282300Z AUTO 29004KT 250V320 9999 OVC007 04/04 Q1017

28 novembre 2022

Temps Code Temps Temp. Vue Base cloud Vent METAR/SPECI
23:30
I
4 °C 10 km+ 600 ft 300° 300° 6 kt METAR LFLW 282230Z AUTO 30006KT 260V330 9999 BKN006 OVC012 04/04 Q1017
23:00
I
4 °C 10 km+ 500 ft 290° 290° 7 kt METAR LFLW 282200Z AUTO 29007KT 250V330 9999 OVC005 04/04 Q1017
22:30
I
5 °C 10 km+ 600 ft 280° 280° 6 kt METAR LFLW 282130Z AUTO 28006KT 250V320 9999 BKN006 OVC010 05/04 Q1017
22:00
M
5 °C 10 km+ 1.100 ft 270° 270° 3 kt METAR LFLW 282100Z AUTO 27003KT 230V310 9999 BKN011 OVC018 05/04 Q1017
21:30
V
5 °C 10 km+ 3.000 ft Var Var 3 kt METAR LFLW 282030Z AUTO VRB03KT 9999 SCT019 BKN030 OVC037 05/04 Q1017
21:00
M
5 °C 10 km+ 2.900 ft Var Var 3 kt METAR LFLW 282000Z AUTO VRB03KT 9999 OVC029 05/05 Q1017
20:30
V
5 °C 10 km+ 3.300 ft 270° 270° 2 kt METAR LFLW 281930Z AUTO 27002KT 9999 FEW011 BKN033 BKN062 05/05 Q1016
20:00
M
5 °C 10 km+ 1.700 ft 300° 300° 3 kt METAR LFLW 281900Z AUTO 30003KT 250V350 9999 -RADZ FEW011/// BKN017/// OVC026/// ///TCU 05/05 Q1017
19:30
M
5 °C 8 km 2.100 ft Var Var 2 kt METAR LFLW 281830Z AUTO VRB02KT 8000 RA SCT016/// BKN021/// BKN026/// ///CB 05/05 Q1017
19:00
V
5 °C 10 km+ 3.000 ft Var Var 2 kt METAR LFLW 281800Z AUTO VRB02KT 9999 -RA FEW014/// BKN030/// OVC036/// ///CB 05/04 Q1016
18:30
V
5 °C 10 km+ 3.100 ft Var Var 1 kt METAR LFLW 281730Z AUTO VRB01KT 9999 SCT023/// BKN031/// BKN042/// ///CB 05/04 Q1016
18:00
V
5 °C 10 km+ 3.000 ft 190° 190° 3 kt METAR LFLW 281700Z AUTO 19003KT 150V210 9999 FEW023/// BKN030/// BKN041/// ///CB 05/05 Q1016 TEMPO VRB15G25KT 3000 SHRA BKN005 SCT020CB
17:30
M
6 °C 5 km 3.100 ft 270° 270° 3 kt METAR LFLW 281630Z AUTO 27003KT 230V320 5000 RA BR FEW007/// OVC031/// ///CB 06/04 Q1016 TEMPO VRB15G25KT BKN005 SCT020CB
17:00
I
6 °C 4,4 km 2.900 ft 290° 290° 5 kt METAR LFLW 281600Z AUTO 29005KT 240V320 4400 RA BR OVC029/// ///CB 06/05 Q1016 TEMPO BKN014 SCT020TCU
16:30
V
7 °C 10 km+ 3.300 ft 240° 240° 5 kt METAR LFLW 281530Z AUTO 24005KT 210V280 9999 -RA SCT012/// BKN033/// OVC045/// ///CB 07/05 Q1016 TEMPO 3000 SHRA BKN014 SCT020TCU
16:00
M
8 °C 10 km+ 2.400 ft Var Var 2 kt METAR LFLW 281500Z AUTO VRB02KT 9999 FEW013/// SCT018/// BKN024/// ///CB 08/05 Q1016 TEMPO 3000 SHRA BKN014 SCT020TCU
15:30
M
8 °C 10 km+ 1.500 ft 260° 260° 5 kt METAR LFLW 281430Z AUTO 26005KT 230V310 9999 BKN015 08/06 Q1016 TEMPO BKN005 FEW020TCU
15:00
V
8 °C 10 km+ 4.800 ft 270° 270° 5 kt METAR LFLW 281400Z AUTO 27005KT 240V300 9999 FEW015 SCT037 BKN048 08/05 Q1016 TEMPO VRB15G25KT 3000 SHRA BKN005 FEW020TCU
14:30
M
8 °C 10 km+ 1.300 ft 290° 290° 3 kt METAR LFLW 281330Z AUTO 29003KT 240V320 9999 BKN013 BKN018 OVC023 08/06 Q1016 TEMPO VRB15G25KT 3000 SHRA BKN005 FEW020TCU
14:00
M
8 °C 10 km+ 2.800 ft 310° 310° 5 kt METAR LFLW 281300Z AUTO 31005KT 260V360 9999 SCT015 BKN028 OVC036 08/06 Q1016 TEMPO VRB15G25KT 3000 SHRA BKN013 SCT020CB
13:30
M
8 °C 10 km+ 1.700 ft 300° 300° 5 kt METAR LFLW 281230Z AUTO 30005KT 240V330 9999 FEW012 BKN017 BKN024 08/06 Q1016 TEMPO VRB15G25KT 3000 SHRA BKN013 SCT020CB
13:00
M
7 °C 10 km+ 2.600 ft 300° 300° 6 kt METAR LFLW 281200Z AUTO 30006KT 260V330 9999 DZ SCT017 BKN026 BKN033 07/05 Q1016 TEMPO VRB15G25KT 3000 SHRA BKN013 SCT020CB
12:30
M
8 °C 10 km+ 1.200 ft 300° 300° 6 kt METAR LFLW 281130Z AUTO 30006KT 270V330 9999 BKN012/// BKN019/// BKN140/// ///TCU 08/06 Q1016 TEMPO VRB15G25KT 3000 SHRA BKN013 SCT020CB
12:00
M
8 °C 10 km+ 1.200 ft 310° 310° 7 kt METAR LFLW 281100Z AUTO 31007KT 270V340 9999 BKN012/// BKN022/// BKN042/// ///TCU 08/06 Q1016 TEMPO 4000 -RA BR BKN004
11:30
I
8 °C 10 km+ 900 ft 310° 310° 7 kt METAR LFLW 281030Z AUTO 31007KT 280V340 9999 BKN009 BKN016 BKN025 08/06 Q1016 TEMPO 4000 -RA BR BKN004
11:00
I
7 °C 10 km+ 900 ft 280° 280° 6 kt METAR LFLW 281000Z AUTO 28006KT 260V320 9999 BKN009/// BKN013/// OVC025/// ///TCU 07/07 Q1016 TEMPO 4000 -RA BR BKN004
10:30
I
7 °C 5 km 500 ft 280° 280° 5 kt METAR LFLW 280930Z AUTO 28005KT 250V340 5000 -RA BR BKN005/// BKN009/// BKN014/// ///CB 07/06 Q1016 TEMPO BKN008
10:00
I
7 °C 4,5 km 600 ft 270° 270° 4 kt METAR LFLW 280900Z AUTO 27004KT 240V310 9999 4500 RA BKN006/// OVC010/// ///TCU 07/07 Q1016 TEMPO NSW BKN008
09:30
M
7 °C 10 km+ 1.500 ft 270° 270° 4 kt METAR LFLW 280830Z AUTO 27004KT 230V290 9999 BKN015/// BKN032/// BKN043/// ///TCU 07/06 Q1016 TEMPO 3000 SHRA BKN003 SCT020TCU
09:00
M
7 °C 10 km+ 1.700 ft 270° 270° 5 kt METAR LFLW 280800Z AUTO 27005KT 240V300 9999 -RA FEW010/// BKN017/// BKN033/// ///CB 07/06 Q1016 TEMPO 3000 SHRA BKN003 SCT020TCU
08:30
M
7 °C 10 km+ 1.000 ft 250° 250° 4 kt METAR LFLW 280730Z AUTO 25004KT 9999 -RA BKN010/// BKN017/// OVC028/// ///CB 07/06 Q1016 TEMPO 3000 SHRA BKN003 SCT020TCU
08:00
I
7 °C 10 km+ 800 ft 230° 230° 4 kt METAR LFLW 280700Z AUTO 23004KT 190V260 9999 OVC008/// ///CB 07/06 Q1015 TEMPO 3000 SHRA BKN003 SCT020TCU
07:30
M
7 °C 7 km 1.300 ft Var Var 2 kt METAR LFLW 280630Z AUTO VRB02KT 7000 -RA FEW008/// BKN013/// OVC020/// ///TCU 07/06 Q1015 TEMPO 3000 SHRA BKN003 SCT020TCU
07:00
M
7 °C 8 km 1.700 ft Var Var 2 kt METAR LFLW 280600Z AUTO VRB02KT 8000 RA FEW008/// BKN017/// BKN026/// ///TCU 07/06 Q1015 TEMPO 3000 SHRA BKN003 SCT020TCU
06:30
V
7 °C 10 km+ 3.400 ft 260° 260° 3 kt METAR LFLW 280530Z AUTO 26003KT 220V300 9999 -RA FEW018/// BKN034/// OVC062/// ///TCU 07/06 Q1015 TEMPO 3000 SHRA BKN003 SCT020TCU
06:00
V
7 °C 10 km+ 7.200 ft Var Var 3 kt METAR LFLW 280500Z AUTO VRB03KT 9999 -RADZ FEW016/// SCT054/// BKN072/// ///TCU 07/06 Q1015
05:30
I
7 °C 10 km+ 500 ft 240° 240° 8 kt METAR LFLW 280430Z AUTO 24008KT 210V280 9999 -RA BKN005/// BKN010/// BKN015/// ///TCU 07/06 Q1015
05:00
I
7 °C 4 km 600 ft 220° 220° 7 kt METAR LFLW 280400Z AUTO 22007KT 180V240 9999 4000 -RA OVC006/// ///TCU 07/07 Q1015
04:30
I
7 °C 4,6 km 800 ft 200° 200° 3 kt METAR LFLW 280330Z AUTO 20003KT 150V250 4600 RA BR BKN008/// OVC015/// ///TCU 07/07 Q1015
04:00
M
7 °C 7 km 1.700 ft 160° 160° 3 kt METAR LFLW 280300Z AUTO 16003KT 120V200 7000 -RA FEW010/// BKN017/// OVC026/// ///TCU 07/07 Q1015
03:30
M
7 °C 9 km 1.300 ft 150° 150° 4 kt METAR LFLW 280230Z AUTO 15004KT 120V180 9000 -RA BKN013/// BKN029/// BKN035/// ///TCU 07/06 Q1016
03:00
M
7 °C 10 km+ 1.600 ft 200° 200° 4 kt METAR LFLW 280200Z AUTO 20004KT 160V240 9999 -RA OVC016/// ///TCU 07/06 Q1016
02:30
M
7 °C 10 km+ 2.000 ft Var Var 3 kt METAR LFLW 280130Z AUTO VRB03KT 9999 -RA OVC020/// ///TCU 07/06 Q1016
02:00
M
7 °C 10 km+ 2.600 ft 160° 160° 4 kt METAR LFLW 280100Z AUTO 16004KT 120V210 9999 -RA OVC026/// ///TCU 07/06 Q1016
01:30
M
8 °C 10 km+ 2.800 ft 170° 170° 6 kt METAR LFLW 280030Z AUTO 17006KT 140V210 9999 -RA BKN028/// BKN035/// BKN048/// ///TCU 08/05 Q1016
01:00
V
8 °C 10 km+ 7.400 ft 150° 150° 9 kt METAR LFLW 280000Z AUTO 15009KT 9999 SCT052/// SCT062/// BKN074/// ///TCU 08/05 Q1017
00:30
V
8 °C 10 km+ 10.000 ft 150° 150° 5 kt METAR LFLW 272330Z AUTO 15005KT 110V200 9999 FEW050 BKN100 OVC120 08/04 Q1017
00:00
V
8 °C 10 km+ - 220° 220° 4 kt METAR LFLW 272300Z AUTO 22004KT 130V280 CAVOK 08/04 Q1017

27 novembre 2022

Temps Code Temps Temp. Vue Base cloud Vent METAR/SPECI
23:30
V
8 °C 10 km+ - 130° 130° 7 kt METAR LFLW 272230Z AUTO 13007KT 090V180 CAVOK 08/04 Q1017
23:00
V
8 °C 10 km+ - 150° 150° 7 kt METAR LFLW 272200Z AUTO 15007KT 120V180 CAVOK 08/04 Q1017
22:30
V
7 °C 10 km+ - 090° 090° 3 kt METAR LFLW 272130Z AUTO 09003KT CAVOK 07/03 Q1017
22:00
V
7 °C 10 km+ - Var Var 2 kt METAR LFLW 272100Z AUTO VRB02KT CAVOK 07/02 Q1017
21:30
V
8 °C 10 km+ - 110° 110° 5 kt METAR LFLW 272030Z AUTO 11005KT 080V160 CAVOK 08/02 Q1017
21:00
V
8 °C 10 km+ - 100° 100° 6 kt METAR LFLW 272000Z AUTO 10006KT 080V140 CAVOK 08/02 Q1017
20:30
V
8 °C 10 km+ - 090° 090° 9 kt METAR LFLW 271930Z AUTO 09009KT CAVOK 08/01 Q1017
20:00
V
8 °C 10 km+ - 090° 090° 10 kt METAR LFLW 271900Z AUTO 09010KT CAVOK 08/01 Q1017
19:30
V
8 °C 10 km+ - 100° 100° 9 kt METAR LFLW 271830Z AUTO 10009KT CAVOK 08/00 Q1017
19:00
V
8 °C 10 km+ - 090° 090° 7 kt METAR LFLW 271800Z AUTO 09007KT CAVOK 08/M00 Q1018
18:30
V
9 °C 10 km+ - 110° 110° 8 kt METAR LFLW 271730Z AUTO 11008KT 080V140 CAVOK 09/00 Q1018
18:00
V
9 °C 10 km+ - 100° 100° 7 kt METAR LFLW 271700Z AUTO 10007KT 070V130 CAVOK 09/01 Q1018 NOSIG
17:30
V
9 °C 10 km+ - 090° 090° 7 kt METAR LFLW 271630Z AUTO 09007KT 070V130 CAVOK 09/00 Q1018 NOSIG
17:00
V
9 °C 10 km+ - 100° 100° 6 kt METAR LFLW 271600Z AUTO 10006KT 070V150 CAVOK 09/01 Q1019 NOSIG
16:30
V
10 °C 10 km+ - 110° 110° 8 kt METAR LFLW 271530Z AUTO 11008KT 070V140 CAVOK 10/00 Q1019 NOSIG
16:00
V
11 °C 10 km+ - 120° 120° 8 kt METAR LFLW 271500Z AUTO 12008KT 080V150 CAVOK 11/M00 Q1019 NOSIG
15:30
V
12 °C 10 km+ - 130° 130° 8 kt METAR LFLW 271430Z AUTO 13008KT 100V170 CAVOK 12/M01 Q1019 NOSIG
15:00
V
12 °C 10 km+ - 130° 130° 4 kt METAR LFLW 271400Z AUTO 13004KT 080V190 CAVOK 12/M00 Q1019 NOSIG
14:30
V
12 °C 10 km+ - 120° 120° 9 kt METAR LFLW 271330Z AUTO 12009KT 080V150 CAVOK 12/M00 Q1020 NOSIG
14:00
V
12 °C 10 km+ - 120° 120° 11 kt METAR LFLW 271300Z AUTO 12011KT 090V150 CAVOK 12/M03 Q1020 NOSIG
13:30
V
12 °C 10 km+ - 120° 120° 12 kt METAR LFLW 271230Z AUTO 12012KT CAVOK 12/M01 Q1021 NOSIG
13:00
V
12 °C 10 km+ - 130° 130° 11 kt METAR LFLW 271200Z AUTO 13011KT 090V160 CAVOK 12/M01 Q1021 NOSIG
12:30
V
12 °C 10 km+ - 120° 120° 8 kt METAR LFLW 271130Z AUTO 12008KT 080V140 CAVOK 12/M02 Q1021 NOSIG
12:00
V
12 °C 10 km+ - 110° 110° 8 kt METAR LFLW 271100Z AUTO 11008KT 080V150 CAVOK 12/M02 Q1022 NOSIG
11:30
V
11 °C 10 km+ - 110° 110° 7 kt METAR LFLW 271030Z AUTO 11007KT CAVOK 11/M02 Q1022 NOSIG
11:00
V
10 °C 10 km+ - 100° 100° 5 kt METAR LFLW 271000Z AUTO 10005KT CAVOK 10/M02 Q1023 NOSIG

Nous et des tiers suivons ton comportement Internet sur notre site Web à l'aide de cookies. Si tu continues, nous supposons que tu es d'accord avec notre Politique en matière de cookies.